3 – eServices

Baggage tracing
Cargo tracing
Weather
  • METAR

    EFMA 200020Z AUTO 20007KT 170V260 CAVOK 16/14 Q1011

    EFTU 200020Z AUTO 16005KT CAVOK 19/14 Q1013

    EFHK 200020Z VRB02KT CAVOK 15/14 Q1015 NOSIG

    ESSA 200020Z 19004KT CAVOK 18/14 Q1010 NOSIG

    ESSB 200020Z AUTO VRB02KT 9999 NCD 18/14 Q1011

  • TAF n/a

Flightradar24